Time;durP1;ratioP1;P1;durP2;ratioP2;P2;SDS_P1;SDS_P2;PMS_P1;PMS_P2;Temp;Humidity;BMP_temperature;BMP_pressure;BME280_temperature;BME280_humidity;BME280_pressure;Samples;Min_cycle;Max_cycle;Signal;HPM_P1;HPM_P2
2023/01/28 00:01:29;;;;;;;;;;;2.00;94.90;;;;;;5009887;28;20820;-77
2023/01/28 00:03:54;;;;;;;;;;;2.10;95.00;;;;;;5011615;28;19909;-76
2023/01/28 00:06:20;;;;;;;;;;;2.10;95.10;;;;;;5008567;28;19927;-77
2023/01/28 00:08:45;;;;;;;;;;;2.00;95.20;;;;;;5016659;28;20035;-76
2023/01/28 00:11:12;;;;;;;;;;;2.10;95.10;;;;;;5005666;28;20021;-77
2023/01/28 00:13:38;;;;;;;;;;;2.10;95.10;;;;;;5005660;28;19912;-77
2023/01/28 00:16:05;;;;;;;;;;;2.10;95.50;;;;;;5010252;28;19909;-77
2023/01/28 00:18:31;;;;;;;;;;;2.10;95.10;;;;;;5015150;28;20000;-76
2023/01/28 00:20:57;;;;;;;;;;;2.20;94.90;;;;;;5014441;28;20020;-76
2023/01/28 00:23:23;;;;;;;;;;;2.20;94.70;;;;;;5017829;28;19920;-77
2023/01/28 00:25:49;;;;;;;;;;;2.20;94.90;;;;;;5011286;28;19920;-77
2023/01/28 00:28:14;;;;;;;;;;;2.10;95.00;;;;;;5015685;28;19916;-78
2023/01/28 00:30:40;;;;;;;;;;;2.10;95.10;;;;;;5016011;28;19913;-77
2023/01/28 00:33:05;;;;;;;;;;;2.10;94.90;;;;;;5012763;28;19960;-77
2023/01/28 00:35:31;;;;;;;;;;;2.10;95.00;;;;;;5016489;28;19913;-77
2023/01/28 00:37:57;;;;;;;;;;;2.10;94.70;;;;;;5007670;28;20008;-76
2023/01/28 00:40:22;;;;;;;;;;;2.20;95.00;;;;;;5006477;28;20008;-76
2023/01/28 00:42:48;;;;;;;;;;;2.10;94.80;;;;;;5005484;28;19914;-77
2023/01/28 00:45:13;;;;;;;;;;;2.20;94.90;;;;;;5012523;28;19947;-77
2023/01/28 00:47:39;;;;;;;;;;;2.10;94.60;;;;;;5012804;28;19939;-77
2023/01/28 00:50:05;;;;;;;;;;;2.00;94.70;;;;;;4986689;28;19920;-77
2023/01/28 00:52:30;;;;;;;;;;;2.10;94.60;;;;;;5005401;28;20416;-77
2023/01/28 00:54:56;;;;;;;;;;;1.90;94.80;;;;;;5014563;28;19913;-77
2023/01/28 00:57:21;;;;;;;;;;;1.90;94.90;;;;;;5014976;28;19921;-76
2023/01/28 00:59:47;;;;;;;;;;;1.90;94.90;;;;;;5013498;28;19944;-76
2023/01/28 01:02:13;;;;;;;;;;;1.90;94.80;;;;;;5008010;28;19909;-76
2023/01/28 01:04:39;;;;;;;;;;;1.90;95.20;;;;;;5005286;28;19909;-76
2023/01/28 01:07:05;;;;;;;;;;;2.00;95.20;;;;;;4997177;28;19920;-76
2023/01/28 01:09:31;;;;;;;;;;;2.00;95.30;;;;;;4992863;28;19921;-76
2023/01/28 01:11:56;;;;;;;;;;;1.90;95.10;;;;;;5008508;28;19920;-76
2023/01/28 01:14:22;;;;;;;;;;;1.90;95.00;;;;;;5015607;28;20028;-76
2023/01/28 01:16:47;;;;;;;;;;;1.90;95.10;;;;;;5014979;28;19920;-76
2023/01/28 01:19:13;;;;;;;;;;;1.90;95.20;;;;;;5011294;28;20340;-77
2023/01/28 01:21:39;;;;;;;;;;;1.90;95.30;;;;;;5007585;28;20027;-76
2023/01/28 01:24:04;;;;;;;;;;;1.90;95.30;;;;;;5020101;28;20476;-76
2023/01/28 01:26:30;;;;;;;;;;;1.90;95.00;;;;;;5005771;28;19914;-76
2023/01/28 01:28:55;;;;;;;;;;;2.00;95.30;;;;;;5012679;28;20000;-76
2023/01/28 01:31:21;;;;;;;;;;;2.00;95.20;;;;;;5003395;28;20686;-77
2023/01/28 01:33:48;;;;;;;;;;;2.10;95.20;;;;;;5003230;28;19909;-76
2023/01/28 01:36:14;;;;;;;;;;;2.00;95.60;;;;;;5004956;28;19948;-77
2023/01/28 01:38:41;;;;;;;;;;;2.10;95.40;;;;;;5019380;28;20431;-77
2023/01/28 01:41:07;;;;;;;;;;;2.00;95.10;;;;;;5002114;28;19909;-76
2023/01/28 01:43:51;;;;;;;;;;;1.90;95.30;;;;;;5006057;28;19932;-77
2023/01/28 01:46:22;;;;;;;;;;;2.00;95.60;;;;;;5015703;28;20025;-77
2023/01/28 01:48:48;;;;;;;;;;;1.90;95.50;;;;;;5005209;28;19909;-76
2023/01/28 01:51:15;;;;;;;;;;;1.90;95.80;;;;;;5002270;28;19909;-76
2023/01/28 01:53:45;;;;;;;;;;;2.00;95.80;;;;;;5021681;28;20434;-76
2023/01/28 01:56:13;;;;;;;;;;;1.90;95.50;;;;;;5007291;28;19910;-77
2023/01/28 01:58:41;;;;;;;;;;;1.90;95.50;;;;;;5009680;28;19917;-77
2023/01/28 02:01:07;;;;;;;;;;;1.80;95.90;;;;;;5012456;28;19920;-75
2023/01/28 02:03:39;;;;;;;;;;;1.80;95.50;;;;;;5010808;28;19916;-76
2023/01/28 02:06:05;;;;;;;;;;;1.80;95.80;;;;;;5009641;28;19963;-76
2023/01/28 02:08:31;;;;;;;;;;;1.60;95.60;;;;;;5009534;28;20377;-76
2023/01/28 02:11:00;;;;;;;;;;;1.60;96.00;;;;;;5006086;28;19917;-77
2023/01/28 02:13:27;;;;;;;;;;;1.60;95.80;;;;;;5014878;28;20388;-76
2023/01/28 02:15:54;;;;;;;;;;;1.60;95.70;;;;;;5010135;28;19916;-76
2023/01/28 02:18:19;;;;;;;;;;;1.60;95.80;;;;;;5022702;28;19917;-76
2023/01/28 02:20:57;;;;;;;;;;;1.50;96.10;;;;;;5023427;28;20101;-76
2023/01/28 02:23:41;;;;;;;;;;;1.60;95.80;;;;;;5012116;28;19994;-75
2023/01/28 02:26:13;;;;;;;;;;;1.50;95.80;;;;;;5022960;28;20416;-76
2023/01/28 02:28:43;;;;;;;;;;;1.40;96.00;;;;;;5005986;28;20449;-75
2023/01/28 02:31:09;;;;;;;;;;;1.30;96.30;;;;;;5008977;28;20659;-75
2023/01/28 02:33:38;;;;;;;;;;;1.30;96.50;;;;;;5011979;28;19916;-76
2023/01/28 02:36:11;;;;;;;;;;;1.30;96.40;;;;;;5011328;28;19909;-76
2023/01/28 02:38:40;;;;;;;;;;;1.30;96.40;;;;;;5016584;28;19921;-76
2023/01/28 02:41:09;;;;;;;;;;;1.20;96.80;;;;;;5005419;28;19916;-76
2023/01/28 02:43:39;;;;;;;;;;;1.20;96.70;;;;;;5015070;28;19909;-76
2023/01/28 02:48:56;;;;;;;;;;;1.10;97.20;;;;;;5007945;28;20432;-76
2023/01/28 02:51:32;;;;;;;;;;;1.00;97.20;;;;;;5007316;28;19921;-76
2023/01/28 02:54:02;;;;;;;;;;;1.00;97.40;;;;;;5016997;28;20428;-77
2023/01/28 02:56:35;;;;;;;;;;;0.90;97.70;;;;;;4994450;28;20679;-75
2023/01/28 02:59:29;;;;;;;;;;;1.00;97.60;;;;;;5012776;28;19936;-76
2023/01/28 03:01:57;;;;;;;;;;;1.00;97.70;;;;;;5008914;28;19992;-76
2023/01/28 03:04:25;;;;;;;;;;;0.90;97.80;;;;;;5010101;28;20009;-76
2023/01/28 03:06:53;;;;;;;;;;;1.00;97.80;;;;;;5013402;28;19917;-76
2023/01/28 03:09:23;;;;;;;;;;;1.10;97.70;;;;;;5013957;28;19944;-78
2023/01/28 03:36:52;;;;;;;;;;;1.60;96.40;;;;;;5020691;28;19927;-78
2023/01/28 03:39:20;;;;;;;;;;;1.50;96.60;;;;;;5018799;28;20426;-77
2023/01/28 03:41:56;;;;;;;;;;;1.60;96.10;;;;;;5011174;28;19912;-79
2023/01/28 03:47:07;;;;;;;;;;;1.60;96.00;;;;;;5014206;28;19951;-77
2023/01/28 03:49:33;;;;;;;;;;;1.60;96.00;;;;;;5019081;28;19913;-77
2023/01/28 03:51:59;;;;;;;;;;;1.60;95.70;;;;;;5010637;28;19919;-77
2023/01/28 03:54:24;;;;;;;;;;;1.70;95.70;;;;;;5010214;28;20012;-77
2023/01/28 03:56:50;;;;;;;;;;;1.70;95.50;;;;;;5010750;28;19921;-76
2023/01/28 03:59:16;;;;;;;;;;;1.70;95.50;;;;;;5018920;28;19964;-78
2023/01/28 04:01:41;;;;;;;;;;;1.70;95.00;;;;;;5013616;28;19995;-77
2023/01/28 04:04:07;;;;;;;;;;;1.70;95.20;;;;;;5009936;28;19916;-77
2023/01/28 04:06:32;;;;;;;;;;;1.70;95.20;;;;;;5016518;28;19909;-76
2023/01/28 04:08:58;;;;;;;;;;;1.70;95.40;;;;;;5012049;28;19913;-77
2023/01/28 04:11:25;;;;;;;;;;;1.70;95.50;;;;;;5008069;28;20008;-76
2023/01/28 04:13:50;;;;;;;;;;;1.80;94.90;;;;;;5004479;28;20481;-76
2023/01/28 04:16:17;;;;;;;;;;;1.80;95.10;;;;;;5009057;28;20083;-76
2023/01/28 04:18:43;;;;;;;;;;;1.80;95.20;;;;;;5020239;28;20419;-77
2023/01/28 04:21:09;;;;;;;;;;;1.80;95.20;;;;;;5022100;28;19916;-77
2023/01/28 04:23:35;;;;;;;;;;;1.70;95.40;;;;;;5004339;28;19921;-77
2023/01/28 04:26:00;;;;;;;;;;;1.80;95.00;;;;;;5014833;28;19909;-76
2023/01/28 04:28:26;;;;;;;;;;;1.80;94.60;;;;;;5019013;28;19909;-77
2023/01/28 04:30:51;;;;;;;;;;;1.70;95.00;;;;;;5012583;28;20004;-77
2023/01/28 04:33:17;;;;;;;;;;;1.70;95.00;;;;;;5003182;28;19909;-77
2023/01/28 04:35:43;;;;;;;;;;;1.70;94.40;;;;;;5003375;28;20266;-75
2023/01/28 04:38:08;;;;;;;;;;;1.70;94.30;;;;;;5006887;28;20012;-76
2023/01/28 04:40:34;;;;;;;;;;;1.70;94.70;;;;;;5011197;28;19909;-76
2023/01/28 04:42:59;;;;;;;;;;;1.70;94.20;;;;;;5016922;28;20558;-76
2023/01/28 04:45:25;;;;;;;;;;;1.70;94.40;;;;;;5013143;28;19952;-75
2023/01/28 04:47:51;;;;;;;;;;;1.70;94.50;;;;;;5007242;28;19915;-76
2023/01/28 04:50:16;;;;;;;;;;;1.70;94.50;;;;;;5018390;28;19956;-76
2023/01/28 04:52:42;;;;;;;;;;;1.70;94.80;;;;;;5015459;28;20020;-76
2023/01/28 04:55:08;;;;;;;;;;;1.80;94.90;;;;;;5013833;28;19914;-76
2023/01/28 04:57:34;;;;;;;;;;;1.70;94.60;;;;;;5007905;28;20405;-76
2023/01/28 04:59:59;;;;;;;;;;;1.70;94.20;;;;;;5013955;28;20006;-75
2023/01/28 05:02:25;;;;;;;;;;;1.70;94.30;;;;;;5011079;28;19913;-76
2023/01/28 05:04:50;;;;;;;;;;;1.60;94.40;;;;;;5009704;28;20316;-76
2023/01/28 05:07:16;;;;;;;;;;;1.60;94.60;;;;;;5015789;28;20376;-76
2023/01/28 05:09:41;;;;;;;;;;;1.60;94.60;;;;;;5015985;28;20376;-76
2023/01/28 05:12:07;;;;;;;;;;;1.60;94.60;;;;;;5009497;28;19959;-76
2023/01/28 05:14:32;;;;;;;;;;;1.60;94.40;;;;;;5004720;28;20362;-76
2023/01/28 05:16:58;;;;;;;;;;;1.60;94.60;;;;;;5011193;28;20342;-76
2023/01/28 05:19:23;;;;;;;;;;;1.60;94.10;;;;;;5014062;28;20008;-76
2023/01/28 05:21:49;;;;;;;;;;;1.60;93.90;;;;;;5013116;28;19953;-76
2023/01/28 05:24:15;;;;;;;;;;;1.60;94.10;;;;;;5006167;28;19921;-77
2023/01/28 05:26:41;;;;;;;;;;;1.60;94.40;;;;;;5007180;28;20829;-76
2023/01/28 05:29:06;;;;;;;;;;;1.70;94.20;;;;;;5009027;28;19944;-77
2023/01/28 05:31:32;;;;;;;;;;;1.70;94.00;;;;;;5010396;28;19909;-77
2023/01/28 05:33:57;;;;;;;;;;;1.70;93.70;;;;;;5016383;28;19909;-77
2023/01/28 05:36:23;;;;;;;;;;;1.70;94.00;;;;;;5018322;28;19912;-76
2023/01/28 05:38:49;;;;;;;;;;;1.70;94.00;;;;;;5015270;28;20012;-76
2023/01/28 05:41:14;;;;;;;;;;;1.70;94.10;;;;;;5008282;28;19915;-77
2023/01/28 05:43:40;;;;;;;;;;;1.70;94.10;;;;;;5018345;28;19999;-76
2023/01/28 05:46:05;;;;;;;;;;;1.70;94.20;;;;;;5019448;28;19924;-75
2023/01/28 05:48:31;;;;;;;;;;;1.80;94.50;;;;;;5015596;28;19913;-77
2023/01/28 05:50:57;;;;;;;;;;;1.80;94.30;;;;;;5016416;28;20042;-78
2023/01/28 05:53:22;;;;;;;;;;;1.80;94.50;;;;;;5011130;28;20002;-77
2023/01/28 05:55:49;;;;;;;;;;;1.80;94.50;;;;;;5015418;28;19969;-76
2023/01/28 05:58:14;;;;;;;;;;;1.80;94.50;;;;;;5018177;28;19925;-77
2023/01/28 06:00:40;;;;;;;;;;;1.80;94.50;;;;;;5007254;28;19921;-77
2023/01/28 06:03:06;;;;;;;;;;;1.80;94.60;;;;;;5011495;28;19909;-77
2023/01/28 06:05:31;;;;;;;;;;;1.80;94.60;;;;;;5013830;28;19924;-78
2023/01/28 06:07:57;;;;;;;;;;;1.90;95.20;;;;;;5011985;28;20030;-78
2023/01/28 06:10:22;;;;;;;;;;;1.90;94.50;;;;;;5012593;28;19910;-80
2023/01/28 06:12:48;;;;;;;;;;;1.90;94.40;;;;;;5024015;28;19913;-76
2023/01/28 06:15:13;;;;;;;;;;;1.80;94.50;;;;;;5021091;28;19912;-76
2023/01/28 06:17:39;;;;;;;;;;;1.80;94.30;;;;;;5021370;28;20336;-78
2023/01/28 06:20:05;;;;;;;;;;;1.80;94.40;;;;;;5015271;28;19920;-76
2023/01/28 06:22:30;;;;;;;;;;;1.80;94.30;;;;;;5018163;28;19908;-76
2023/01/28 06:24:56;;;;;;;;;;;1.70;93.50;;;;;;5013101;28;19913;-77
2023/01/28 06:27:21;;;;;;;;;;;1.70;93.90;;;;;;5021196;28;19909;-76
2023/01/28 06:29:47;;;;;;;;;;;1.70;94.30;;;;;;5011947;28;19952;-76
2023/01/28 06:32:12;;;;;;;;;;;1.60;93.70;;;;;;5006751;28;20648;-76
2023/01/28 06:34:38;;;;;;;;;;;1.50;93.90;;;;;;5005858;28;19913;-76
2023/01/28 06:37:04;;;;;;;;;;;1.50;93.80;;;;;;5013422;28;19917;-75
2023/01/28 06:39:32;;;;;;;;;;;1.60;93.80;;;;;;5018348;28;20352;-76
2023/01/28 06:41:58;;;;;;;;;;;1.60;93.30;;;;;;5014625;28;19916;-76
2023/01/28 06:44:24;;;;;;;;;;;1.60;93.50;;;;;;5015378;28;20422;-76
2023/01/28 06:46:50;;;;;;;;;;;1.60;93.10;;;;;;5007823;28;19909;-76
2023/01/28 06:49:15;;;;;;;;;;;1.60;92.90;;;;;;4996859;28;19917;-75
2023/01/28 06:51:41;;;;;;;;;;;1.70;93.00;;;;;;5013213;28;20494;-76
2023/01/28 06:54:06;;;;;;;;;;;1.60;93.10;;;;;;5018390;28;19909;-76
2023/01/28 06:56:32;;;;;;;;;;;1.50;93.00;;;;;;5020037;28;19916;-77
2023/01/28 06:58:58;;;;;;;;;;;1.40;92.90;;;;;;5016818;28;19913;-76
2023/01/28 07:01:23;;;;;;;;;;;1.40;93.20;;;;;;5009353;28;19909;-76
2023/01/28 07:03:49;;;;;;;;;;;1.40;93.00;;;;;;5012946;28;20017;-76
2023/01/28 07:06:15;;;;;;;;;;;1.40;93.00;;;;;;4987173;28;19952;-76
2023/01/28 07:08:40;;;;;;;;;;;1.40;92.90;;;;;;5012055;28;20020;-77
2023/01/28 07:11:06;;;;;;;;;;;1.40;93.10;;;;;;5010143;28;20702;-77
2023/01/28 07:13:31;;;;;;;;;;;1.30;93.10;;;;;;5010479;28;19910;-77
2023/01/28 07:15:57;;;;;;;;;;;1.30;93.40;;;;;;5016249;28;20004;-78
2023/01/28 07:18:23;;;;;;;;;;;1.30;93.10;;;;;;5020353;28;19921;-76
2023/01/28 07:20:48;;;;;;;;;;;1.30;93.10;;;;;;5016664;28;20014;-76
2023/01/28 07:23:14;;;;;;;;;;;1.30;93.40;;;;;;5013077;28;19917;-76
2023/01/28 07:25:39;;;;;;;;;;;1.30;92.90;;;;;;5017194;28;20376;-77
2023/01/28 07:28:05;;;;;;;;;;;1.30;93.10;;;;;;5019476;28;19974;-78
2023/01/28 07:30:31;;;;;;;;;;;1.20;92.90;;;;;;5008936;28;19916;-76
2023/01/28 07:32:57;;;;;;;;;;;1.30;92.70;;;;;;5019523;28;20380;-77
2023/01/28 07:35:23;;;;;;;;;;;1.30;92.70;;;;;;5015513;28;19920;-77
2023/01/28 07:37:52;;;;;;;;;;;1.20;93.10;;;;;;5013991;28;19960;-77
2023/01/28 07:40:18;;;;;;;;;;;1.30;92.80;;;;;;5015391;28;20141;-79
2023/01/28 07:42:44;;;;;;;;;;;1.20;92.90;;;;;;5017267;28;20046;-77
2023/01/28 07:45:09;;;;;;;;;;;1.20;93.10;;;;;;5016444;28;19959;-77
2023/01/28 07:47:35;;;;;;;;;;;1.30;93.30;;;;;;5014207;28;20381;-77
2023/01/28 07:50:01;;;;;;;;;;;1.30;93.20;;;;;;5005028;28;19922;-78
2023/01/28 07:52:26;;;;;;;;;;;1.30;93.10;;;;;;5021327;28;19927;-78
2023/01/28 07:54:52;;;;;;;;;;;1.20;93.20;;;;;;5015514;28;20008;-78
2023/01/28 07:57:22;;;;;;;;;;;1.30;93.40;;;;;;5016416;28;20033;-78
2023/01/28 07:59:48;;;;;;;;;;;1.30;92.80;;;;;;5013204;28;20448;-77
2023/01/28 08:02:14;;;;;;;;;;;1.30;93.10;;;;;;5007273;28;19920;-78
2023/01/28 08:04:39;;;;;;;;;;;1.40;93.20;;;;;;5020537;28;19913;-76
2023/01/28 08:07:05;;;;;;;;;;;1.40;93.20;;;;;;5017373;28;20004;-76
2023/01/28 08:09:33;;;;;;;;;;;1.40;93.00;;;;;;5010142;28;19913;-75
2023/01/28 08:12:00;;;;;;;;;;;1.40;92.70;;;;;;5009676;28;20429;-77
2023/01/28 08:14:26;;;;;;;;;;;1.50;92.70;;;;;;5002209;28;19959;-81
2023/01/28 08:16:52;;;;;;;;;;;1.50;93.00;;;;;;5018644;28;20335;-78
2023/01/28 08:19:17;;;;;;;;;;;1.60;93.10;;;;;;5014304;28;19967;-84
2023/01/28 08:21:43;;;;;;;;;;;1.70;92.80;;;;;;5019027;28;19917;-82
2023/01/28 08:24:08;;;;;;;;;;;1.70;93.00;;;;;;5019822;28;19960;-83
2023/01/28 08:26:34;;;;;;;;;;;1.80;92.60;;;;;;5018974;28;19909;-83
2023/01/28 08:29:00;;;;;;;;;;;1.60;92.50;;;;;;5001595;28;19952;-81
2023/01/28 08:31:26;;;;;;;;;;;1.70;92.80;;;;;;5015649;28;19920;-83
2023/01/28 08:33:52;;;;;;;;;;;1.70;92.40;;;;;;5016650;28;19909;-83
2023/01/28 08:36:17;;;;;;;;;;;1.70;92.40;;;;;;5013504;28;19916;-84
2023/01/28 08:38:43;;;;;;;;;;;1.90;92.40;;;;;;5003800;28;20039;-83
2023/01/28 08:41:08;;;;;;;;;;;1.70;92.30;;;;;;5014193;28;19920;-83
2023/01/28 08:43:34;;;;;;;;;;;1.70;92.40;;;;;;5019599;28;20664;-82
2023/01/28 08:46:00;;;;;;;;;;;1.70;92.60;;;;;;5019453;28;20094;-85
2023/01/28 08:48:25;;;;;;;;;;;1.90;92.30;;;;;;5019571;28;19909;-86
2023/01/28 08:50:51;;;;;;;;;;;1.70;91.90;;;;;;5010690;28;19910;-81
2023/01/28 08:53:18;;;;;;;;;;;1.80;92.10;;;;;;5014262;28;19909;-76
2023/01/28 08:55:44;;;;;;;;;;;1.90;92.60;;;;;;5019385;28;19936;-76
2023/01/28 08:58:10;;;;;;;;;;;1.80;92.70;;;;;;5016692;28;19917;-76
2023/01/28 09:00:36;;;;;;;;;;;1.90;92.30;;;;;;5003220;28;20036;-76
2023/01/28 09:03:02;;;;;;;;;;;1.90;92.40;;;;;;5003379;28;19909;-76
2023/01/28 09:05:28;;;;;;;;;;;1.80;92.20;;;;;;5003134;28;20387;-76
2023/01/28 09:07:54;;;;;;;;;;;1.80;92.00;;;;;;5008981;28;19913;-77
2023/01/28 09:10:20;;;;;;;;;;;1.80;91.90;;;;;;5022214;28;19909;-76
2023/01/28 09:12:46;;;;;;;;;;;1.90;92.40;;;;;;5009861;28;19932;-76
2023/01/28 09:15:12;;;;;;;;;;;1.90;92.20;;;;;;5002625;28;20639;-76
2023/01/28 09:17:38;;;;;;;;;;;1.90;92.30;;;;;;5012657;28;19975;-77
2023/01/28 09:20:04;;;;;;;;;;;1.90;92.20;;;;;;4992407;28;19925;-77
2023/01/28 09:22:30;;;;;;;;;;;1.90;92.30;;;;;;5013046;28;19913;-77
2023/01/28 09:24:55;;;;;;;;;;;2.00;92.40;;;;;;5006418;28;19912;-78
2023/01/28 09:27:21;;;;;;;;;;;2.10;92.40;;;;;;5011384;28;20326;-79
2023/01/28 09:29:46;;;;;;;;;;;2.10;92.60;;;;;;5007144;28;19916;-79
2023/01/28 09:32:12;;;;;;;;;;;2.10;92.20;;;;;;5011326;28;19935;-79
2023/01/28 09:34:38;;;;;;;;;;;2.10;92.20;;;;;;5019415;28;19909;-79
2023/01/28 09:37:03;;;;;;;;;;;2.10;92.20;;;;;;5002207;28;19917;-79
2023/01/28 09:39:29;;;;;;;;;;;2.10;92.30;;;;;;4985426;28;19924;-79
2023/01/28 09:41:54;;;;;;;;;;;2.10;92.40;;;;;;5002727;28;19910;-79
2023/01/28 09:44:29;;;;;;;;;;;2.10;92.40;;;;;;5009994;28;19992;-79
2023/01/28 09:47:00;;;;;;;;;;;2.10;92.50;;;;;;5005509;28;19917;-79
2023/01/28 09:49:33;;;;;;;;;;;2.20;92.50;;;;;;5007814;28;20316;-78
2023/01/28 09:51:59;;;;;;;;;;;2.30;92.60;;;;;;5006230;28;19968;-79
2023/01/28 09:54:24;;;;;;;;;;;2.30;91.90;;;;;;5006474;28;19917;-78
2023/01/28 09:56:52;;;;;;;;;;;2.50;92.10;;;;;;5011842;28;19909;-78
2023/01/28 09:59:19;;;;;;;;;;;2.40;92.50;;;;;;5015016;28;19928;-79
2023/01/28 10:01:51;;;;;;;;;;;2.50;92.30;;;;;;5009957;28;19909;-79
2023/01/28 10:04:16;;;;;;;;;;;2.40;91.80;;;;;;5013366;28;19913;-79
2023/01/28 10:06:51;;;;;;;;;;;2.30;91.80;;;;;;4996621;28;19956;-79
2023/01/28 10:09:27;;;;;;;;;;;2.40;92.20;;;;;;4999117;28;19992;-78
2023/01/28 10:11:55;;;;;;;;;;;2.40;92.70;;;;;;5012118;28;20005;-79
2023/01/28 10:14:26;;;;;;;;;;;2.50;92.60;;;;;;5006185;28;19967;-79
2023/01/28 10:17:18;;;;;;;;;;;2.40;92.60;;;;;;4996770;28;19916;-79
2023/01/28 10:19:48;;;;;;;;;;;2.40;91.90;;;;;;5012051;28;19935;-79
2023/01/28 10:22:17;;;;;;;;;;;2.40;92.10;;;;;;5006436;28;19921;-79
2023/01/28 10:24:50;;;;;;;;;;;2.50;92.60;;;;;;5018382;28;19909;-79
2023/01/28 10:27:18;;;;;;;;;;;2.50;92.50;;;;;;5013965;28;19963;-79
2023/01/28 10:29:45;;;;;;;;;;;2.50;92.30;;;;;;5015927;28;19909;-78
2023/01/28 10:32:10;;;;;;;;;;;2.50;92.40;;;;;;5005358;28;19917;-79
2023/01/28 10:34:36;;;;;;;;;;;2.60;92.20;;;;;;5008673;28;19908;-79
2023/01/28 10:37:02;;;;;;;;;;;2.60;92.20;;;;;;4993103;28;19917;-79
2023/01/28 10:39:28;;;;;;;;;;;2.50;92.40;;;;;;5006452;28;19913;-78
2023/01/28 10:41:54;;;;;;;;;;;2.70;92.40;;;;;;5013276;28;19997;-79
2023/01/28 10:44:39;;;;;;;;;;;2.70;92.40;;;;;;5017514;28;19909;-79
2023/01/28 10:47:15;;;;;;;;;;;2.60;92.50;;;;;;5014410;28;20446;-79
2023/01/28 10:49:44;;;;;;;;;;;2.70;92.50;;;;;;5011827;28;19913;-79
2023/01/28 10:52:11;;;;;;;;;;;2.60;92.60;;;;;;5017870;28;19952;-79
2023/01/28 10:54:36;;;;;;;;;;;2.60;92.50;;;;;;5028178;28;19990;-80
2023/01/28 10:57:09;;;;;;;;;;;2.70;92.40;;;;;;5020028;28;20024;-79
2023/01/28 10:59:35;;;;;;;;;;;2.70;92.20;;;;;;5005299;28;19928;-79
2023/01/28 11:02:03;;;;;;;;;;;2.80;92.30;;;;;;5020857;28;20632;-79
2023/01/28 11:04:29;;;;;;;;;;;2.90;92.40;;;;;;5012812;28;19959;-81
2023/01/28 11:07:05;;;;;;;;;;;2.90;92.20;;;;;;5002966;28;20415;-79
2023/01/28 11:09:35;;;;;;;;;;;2.70;92.00;;;;;;5022659;28;19920;-79
2023/01/28 11:12:10;;;;;;;;;;;2.90;92.30;;;;;;5022420;28;19913;-78
2023/01/28 11:14:36;;;;;;;;;;;2.80;92.00;;;;;;5021423;28;19913;-78
2023/01/28 11:17:02;;;;;;;;;;;2.90;92.40;;;;;;5021541;28;19921;-79
2023/01/28 11:19:33;;;;;;;;;;;2.90;91.90;;;;;;5023490;28;19909;-79
2023/01/28 11:21:59;;;;;;;;;;;2.90;92.20;;;;;;5023171;28;19917;-79
2023/01/28 11:24:26;;;;;;;;;;;3.00;91.90;;;;;;5020473;28;20300;-81
2023/01/28 11:26:53;;;;;;;;;;;2.90;92.30;;;;;;5011995;28;19991;-79
2023/01/28 11:29:32;;;;;;;;;;;3.00;92.00;;;;;;5017265;28;20027;-77
2023/01/28 11:31:58;;;;;;;;;;;3.00;92.50;;;;;;5016581;28;19964;-77
2023/01/28 11:34:28;;;;;;;;;;;3.00;93.20;;;;;;5016080;28;19913;-86
2023/01/28 11:37:00;;;;;;;;;;;3.00;92.50;;;;;;5022550;28;19913;-85
2023/01/28 11:39:28;;;;;;;;;;;3.10;92.20;;;;;;5023502;28;19913;-86
2023/01/28 11:42:02;;;;;;;;;;;3.10;92.10;;;;;;5022186;28;20475;-79
2023/01/28 11:44:27;;;;;;;;;;;3.10;92.20;;;;;;5017208;28;19967;-80
2023/01/28 11:47:11;;;;;;;;;;;3.20;91.80;;;;;;5022200;28;20408;-83
2023/01/28 11:49:55;;;;;;;;;;;3.30;91.70;;;;;;5011660;28;20455;-81
2023/01/28 11:52:26;;;;;;;;;;;3.30;92.00;;;;;;5012372;28;19913;-81
2023/01/28 11:54:57;;;;;;;;;;;3.30;91.50;;;;;;5005474;28;19910;-80
2023/01/28 11:57:42;;;;;;;;;;;3.30;92.00;;;;;;5017510;28;19956;-85
2023/01/28 12:00:19;;;;;;;;;;;3.40;92.00;;;;;;5018904;28;20016;-82
2023/01/28 12:02:45;;;;;;;;;;;3.40;92.00;;;;;;5019328;28;19919;-85
2023/01/28 12:05:18;;;;;;;;;;;3.50;91.80;;;;;;5022278;28;19909;-87
2023/01/28 12:07:55;;;;;;;;;;;3.60;92.10;;;;;;5011742;28;20039;-85
2023/01/28 12:10:33;;;;;;;;;;;3.50;91.10;;;;;;5010568;28;19984;-87
2023/01/28 12:13:31;;;;;;;;;;;3.40;91.30;;;;;;5014933;28;20016;-88
2023/01/28 12:15:58;;;;;;;;;;;3.50;91.30;;;;;;4998274;28;19909;-87
2023/01/28 12:18:40;;;;;;;;;;;4.00;90.90;;;;;;5016877;28;19967;-86
2023/01/28 12:21:09;;;;;;;;;;;4.00;90.60;;;;;;5009613;28;19963;-88
2023/01/28 12:23:47;;;;;;;;;;;3.90;90.80;;;;;;5016184;28;20796;-90
2023/01/28 12:26:18;;;;;;;;;;;3.70;90.50;;;;;;5016408;28;19912;-87
2023/01/28 12:29:02;;;;;;;;;;;3.60;90.90;;;;;;5016291;28;20011;-91
2023/01/28 12:31:31;;;;;;;;;;;3.70;91.30;;;;;;5012445;28;20470;-88
2023/01/28 12:33:56;;;;;;;;;;;3.70;91.40;;;;;;5001626;28;19913;-87
2023/01/28 12:36:36;;;;;;;;;;;3.60;90.90;;;;;;5019028;28;19939;-87
2023/01/28 12:39:13;;;;;;;;;;;3.80;91.00;;;;;;5019730;28;20117;-84
2023/01/28 12:41:42;;;;;;;;;;;4.00;91.70;;;;;;5014454;28;20022;-85
2023/01/28 12:44:14;;;;;;;;;;;3.90;91.10;;;;;;5011250;28;19919;-86
2023/01/28 12:46:51;;;;;;;;;;;4.00;91.00;;;;;;5021305;28;19917;-86
2023/01/28 12:49:22;;;;;;;;;;;4.20;90.90;;;;;;4993722;28;19924;-87
2023/01/28 12:51:51;;;;;;;;;;;4.10;90.80;;;;;;5023784;28;19912;-86
2023/01/28 12:54:20;;;;;;;;;;;4.10;90.30;;;;;;5012643;28;20794;-86
2023/01/28 12:56:51;;;;;;;;;;;4.10;90.30;;;;;;5017393;28;20742;-86
2023/01/28 12:59:35;;;;;;;;;;;3.90;90.60;;;;;;5017896;28;20445;-87
2023/01/28 13:02:10;;;;;;;;;;;4.00;90.50;;;;;;5017134;28;19939;-86
2023/01/28 13:04:55;;;;;;;;;;;4.00;90.60;;;;;;5016625;28;19971;-87
2023/01/28 13:07:33;;;;;;;;;;;4.20;90.60;;;;;;5018926;28;19924;-85
2023/01/28 13:10:03;;;;;;;;;;;4.10;90.70;;;;;;5018269;28;19917;-86
2023/01/28 13:12:30;;;;;;;;;;;4.20;90.60;;;;;;5001379;28;19948;-87
2023/01/28 13:14:55;;;;;;;;;;;4.00;90.20;;;;;;5002164;28;19913;-86
2023/01/28 13:17:26;;;;;;;;;;;4.00;90.30;;;;;;5018774;28;19983;-86
2023/01/28 13:19:51;;;;;;;;;;;4.00;90.40;;;;;;5017154;28;20569;-86
2023/01/28 13:22:34;;;;;;;;;;;3.90;90.30;;;;;;5019077;28;19940;-86
2023/01/28 13:25:32;;;;;;;;;;;4.00;90.60;;;;;;5015028;28;20666;-86
2023/01/28 13:27:59;;;;;;;;;;;4.10;89.90;;;;;;4982328;28;19917;-85
2023/01/28 13:30:25;;;;;;;;;;;4.00;90.20;;;;;;5008330;28;20007;-86
2023/01/28 13:33:04;;;;;;;;;;;4.20;89.60;;;;;;5009138;28;19914;-87
2023/01/28 13:35:31;;;;;;;;;;;4.30;90.40;;;;;;5005457;28;19913;-85
2023/01/28 13:37:58;;;;;;;;;;;4.50;89.90;;;;;;5006092;28;19917;-86
2023/01/28 13:40:25;;;;;;;;;;;4.50;89.40;;;;;;5008810;28;19964;-86
2023/01/28 13:43:00;;;;;;;;;;;4.40;88.60;;;;;;5012083;28;19909;-86
2023/01/28 13:45:26;;;;;;;;;;;4.50;90.00;;;;;;5006254;28;19909;-86
2023/01/28 13:47:55;;;;;;;;;;;4.40;88.70;;;;;;5023229;28;19913;-85
2023/01/28 13:50:22;;;;;;;;;;;4.30;88.50;;;;;;5017918;28;19913;-86
2023/01/28 13:52:50;;;;;;;;;;;4.40;89.30;;;;;;5016284;28;19917;-86
2023/01/28 13:55:20;;;;;;;;;;;4.30;89.10;;;;;;5004753;28;19973;-86
2023/01/28 13:57:51;;;;;;;;;;;4.30;89.40;;;;;;5010836;28;19952;-86
2023/01/28 14:00:17;;;;;;;;;;;4.30;89.20;;;;;;5007243;28;19921;-86
2023/01/28 14:03:01;;;;;;;;;;;4.40;89.50;;;;;;5020811;28;19909;-87
2023/01/28 14:05:42;;;;;;;;;;;4.20;88.70;;;;;;5019838;28;20628;-84
2023/01/28 14:08:23;;;;;;;;;;;4.20;88.70;;;;;;5012692;28;19975;-84
2023/01/28 14:10:51;;;;;;;;;;;4.10;88.80;;;;;;5020189;28;19917;-84
2023/01/28 14:13:22;;;;;;;;;;;4.00;89.00;;;;;;5009500;28;19920;-84
2023/01/28 14:16:03;;;;;;;;;;;4.00;89.10;;;;;;5013648;28;19909;-83
2023/01/28 14:18:38;;;;;;;;;;;4.10;89.10;;;;;;5012312;28;19928;-78
2023/01/28 14:21:10;;;;;;;;;;;4.10;88.60;;;;;;5000543;28;19913;-79
2023/01/28 14:23:36;;;;;;;;;;;4.10;88.30;;;;;;4992122;28;19921;-79
2023/01/28 14:26:24;;;;;;;;;;;4.10;89.50;;;;;;5006603;28;20028;-80
2023/01/28 14:28:55;;;;;;;;;;;4.00;89.40;;;;;;5012389;28;19912;-80
2023/01/28 14:31:24;;;;;;;;;;;4.00;89.80;;;;;;5002283;28;19910;-79
2023/01/28 14:33:50;;;;;;;;;;;3.90;88.30;;;;;;5018270;28;19913;-78
2023/01/28 14:36:15;;;;;;;;;;;3.90;88.90;;;;;;5020227;28;19909;-77
2023/01/28 14:38:42;;;;;;;;;;;3.90;88.50;;;;;;5011372;28;19928;-77
2023/01/28 14:41:09;;;;;;;;;;;4.00;89.50;;;;;;5018835;28;19919;-78
2023/01/28 14:43:35;;;;;;;;;;;4.00;89.70;;;;;;5020293;28;19924;-78
2023/01/28 14:46:12;;;;;;;;;;;3.90;89.30;;;;;;5016005;28;19913;-77
2023/01/28 14:48:41;;;;;;;;;;;3.90;89.40;;;;;;5006404;28;19910;-77
2023/01/28 14:51:09;;;;;;;;;;;3.90;88.70;;;;;;5008163;28;19909;-78
2023/01/28 14:53:47;;;;;;;;;;;3.80;88.70;;;;;;4989573;28;19909;-78
2023/01/28 14:56:15;;;;;;;;;;;3.90;89.40;;;;;;5018281;28;19959;-79
2023/01/28 14:58:47;;;;;;;;;;;3.90;89.70;;;;;;5014675;28;19921;-80
2023/01/28 15:01:24;;;;;;;;;;;3.80;87.80;;;;;;5017975;28;19921;-79
2023/01/28 15:03:50;;;;;;;;;;;3.70;88.10;;;;;;5023005;28;20509;-78
2023/01/28 15:06:17;;;;;;;;;;;3.70;88.10;;;;;;5011904;28;19998;-77
2023/01/28 15:08:42;;;;;;;;;;;3.60;88.80;;;;;;5023531;28;20451;-79